Time;durP1;ratioP1;P1;durP2;ratioP2;P2;SDS_P1;SDS_P2;PMS_P1;PMS_P2;Temp;Humidity;BMP_temperature;BMP_pressure;BME280_temperature;BME280_humidity;BME280_pressure;Samples;Min_cycle;Max_cycle;Signal;HPM_P1;HPM_P2
2022/06/11 00:00:13;;;;;;;11.25;10.10;;;16.30;99.90;;;;;;4774041;29;20184;-67
2022/06/11 00:02:39;;;;;;;15.00;11.55;;;16.40;99.90;;;;;;4805683;29;20150;-68
2022/06/11 00:05:05;;;;;;;15.38;11.15;;;16.30;99.90;;;;;;4804639;29;20526;-67
2022/06/11 00:07:32;;;;;;;11.98;10.30;;;16.20;99.90;;;;;;4789687;29;20061;-66
2022/06/11 00:09:57;;;;;;;13.57;9.50;;;16.20;99.90;;;;;;4805776;29;20058;-67
2022/06/11 00:12:24;;;;;;;10.43;9.10;;;16.10;99.90;;;;;;4804503;29;20492;-66
2022/06/11 00:14:50;;;;;;;14.30;9.75;;;16.00;99.90;;;;;;4787695;29;20082;-68
2022/06/11 00:17:18;;;;;;;12.50;8.82;;;15.90;99.90;;;;;;4789084;29;20444;-65
2022/06/11 00:19:44;;;;;;;11.98;8.90;;;16.00;99.90;;;;;;4789353;29;20078;-68
2022/06/11 00:22:11;;;;;;;11.15;9.15;;;16.10;99.90;;;;;;4804590;29;20061;-66
2022/06/11 00:24:38;;;;;;;11.85;9.63;;;16.10;99.90;;;;;;4804985;29;20043;-65
2022/06/11 00:27:04;;;;;;;11.13;9.73;;;16.00;99.90;;;;;;4804842;29;20099;-66
2022/06/11 00:29:33;;;;;;;13.98;10.00;;;16.10;99.90;;;;;;4807771;29;20183;-68
2022/06/11 00:31:58;;;;;;;9.23;8.23;;;15.90;99.90;;;;;;4809000;29;20192;-66
2022/06/11 00:34:25;;;;;;;16.70;10.57;;;15.90;99.90;;;;;;4791955;29;20055;-68
2022/06/11 00:36:51;;;;;;;12.82;9.32;;;15.80;99.90;;;;;;4808197;29;20047;-66
2022/06/11 00:39:20;;;;;;;15.00;9.88;;;15.90;99.90;;;;;;4791024;29;20090;-67
2022/06/11 00:41:49;;;;;;;11.07;9.15;;;15.90;99.90;;;;;;4807030;29;20104;-67
2022/06/11 00:44:16;;;;;;;14.02;9.25;;;15.70;99.90;;;;;;4806953;29;20122;-68
2022/06/11 00:47:03;;;;;;;12.32;9.63;;;15.70;99.90;;;;;;4808727;29;20047;-67
2022/06/11 00:49:33;;;;;;;11.02;8.95;;;15.80;99.90;;;;;;4790062;30;20055;-67
2022/06/11 00:52:32;;;;;;;11.07;8.98;;;15.60;99.90;;;;;;4790827;30;20104;-66
2022/06/11 00:55:08;;;;;;;13.48;9.20;;;15.70;99.90;;;;;;4794973;29;20070;-66
2022/06/11 00:57:39;;;;;;;13.63;9.25;;;15.60;99.90;;;;;;4805520;29;20050;-68
2022/06/11 01:00:33;;;;;;;12.33;8.77;;;15.40;99.90;;;;;;4777771;29;20054;-67
2022/06/11 01:02:59;;;;;;;16.00;10.45;;;15.50;99.90;;;;;;4791027;29;20308;-68
2022/06/11 01:05:35;;;;;;;14.45;8.98;;;15.70;99.90;;;;;;4776917;29;20046;-67
2022/06/11 01:08:33;;;;;;;12.35;8.77;;;15.30;99.90;;;;;;4792307;29;20051;-68
2022/06/11 01:11:02;;;;;;;11.27;8.93;;;15.50;99.90;;;;;;4790116;29;20058;-68
2022/06/11 01:14:00;;;;;;;11.07;8.63;;;15.40;99.90;;;;;;4790510;29;20069;-67
2022/06/11 01:16:39;;;;;;;13.07;8.85;;;15.60;99.90;;;;;;4807121;29;20086;-66
2022/06/11 01:19:35;;;;;;;10.48;7.97;;;15.50;99.90;;;;;;4808412;29;20053;-68
2022/06/11 01:22:34;;;;;;;12.52;8.38;;;15.50;99.90;;;;;;4808131;29;20055;-66
2022/06/11 01:25:04;;;;;;;11.48;8.52;;;15.30;99.90;;;;;;4799291;29;20069;-68
2022/06/11 01:27:58;;;;;;;9.52;8.18;;;15.50;99.90;;;;;;4791202;29;20125;-68
2022/06/11 01:30:38;;;;;;;11.90;8.52;;;15.50;99.90;;;;;;4792130;29;20058;-68
2022/06/11 01:33:13;;;;;;;10.60;8.85;;;15.40;99.90;;;;;;4807488;29;20050;-68
2022/06/11 01:35:59;;;;;;;11.93;9.05;;;15.30;99.90;;;;;;4805229;29;20090;-66
2022/06/11 01:38:37;;;;;;;12.35;9.18;;;15.30;99.90;;;;;;4806925;29;20054;-67
2022/06/11 01:41:18;;;;;;;12.80;9.95;;;15.20;99.90;;;;;;4806152;29;20647;-67
2022/06/11 01:43:47;;;;;;;11.90;9.40;;;15.10;99.90;;;;;;4807447;29;20098;-67
2022/06/11 01:46:18;;;;;;;12.40;9.10;;;15.00;99.90;;;;;;4789706;29;20055;-66
2022/06/11 01:49:21;;;;;;;11.27;9.30;;;14.90;99.90;;;;;;4807140;29;20046;-65
2022/06/11 01:52:13;;;;;;;13.82;9.48;;;14.90;99.90;;;;;;4799000;29;20108;-68
2022/06/11 01:55:02;;;;;;;12.27;9.18;;;15.60;99.90;;;;;;4806954;29;20075;-66
2022/06/11 01:57:37;;;;;;;12.85;8.68;;;14.80;99.90;;;;;;4807764;29;20057;-68
2022/06/11 02:00:22;;;;;;;9.88;8.88;;;14.60;99.90;;;;;;4806575;29;20051;-67
2022/06/11 02:03:00;;;;;;;12.75;9.63;;;14.90;99.90;;;;;;4807444;29;20050;-66
2022/06/11 02:05:49;;;;;;;13.73;9.02;;;14.80;99.90;;;;;;4787654;30;20474;-68
2022/06/11 02:08:47;;;;;;;12.15;9.55;;;14.70;99.90;;;;;;4804222;29;20050;-66
2022/06/11 02:11:46;;;;;;;12.10;9.10;;;14.70;99.90;;;;;;4807281;29;20062;-66
2022/06/11 02:14:25;;;;;;;11.90;8.45;;;14.70;99.90;;;;;;4802253;29;20480;-66
2022/06/11 02:17:01;;;;;;;11.27;9.43;;;14.70;99.90;;;;;;4789811;29;20051;-67
2022/06/11 02:19:34;;;;;;;11.77;9.35;;;14.80;99.90;;;;;;4791454;29;20111;-66
2022/06/11 02:22:10;;;;;;;15.18;9.82;;;14.80;99.90;;;;;;4806709;29;20393;-67
2022/06/11 02:24:41;;;;;;;13.02;9.68;;;14.80;99.90;;;;;;4805804;29;20130;-66
2022/06/11 02:27:14;;;;;;;10.77;8.97;;;14.60;99.90;;;;;;4805900;29;20062;-65
2022/06/11 02:29:40;;;;;;;13.05;9.13;;;14.80;99.90;;;;;;4807453;29;20871;-66
2022/06/11 02:32:12;;;;;;;15.98;9.85;;;15.00;99.90;;;;;;4790473;29;20349;-68
2022/06/11 02:34:39;;;;;;;;;;;15.00;99.90;;;;;;4791788;29;20050;-67
2022/06/11 02:37:17;;;;;;;9.75;8.35;;;15.10;99.90;;;;;;4789592;29;20145;-66
2022/06/11 02:39:43;;;;;;;11.55;8.68;;;14.80;99.90;;;;;;4791117;29;20365;-67
2022/06/11 02:42:13;;;;;;;11.88;8.88;;;14.90;99.90;;;;;;4806809;29;20051;-67
2022/06/11 02:44:39;;;;;;;11.60;9.38;;;15.00;99.90;;;;;;4806083;29;20065;-68
2022/06/11 02:47:05;;;;;;;11.48;8.02;;;14.60;99.90;;;;;;4790255;29;20050;-68
2022/06/11 02:49:36;;;;;;;11.38;8.35;;;14.70;99.90;;;;;;4806953;29;20053;-68
2022/06/11 02:52:07;;;;;;;9.98;8.32;;;15.50;99.90;;;;;;4787924;29;20127;-67
2022/06/11 02:54:32;;;;;;;13.57;9.05;;;14.70;99.90;;;;;;4789919;29;20350;-66
2022/06/11 02:57:00;;;;;;;10.30;8.70;;;14.60;99.90;;;;;;4790545;29;20062;-65
2022/06/11 02:59:27;;;;;;;13.45;8.70;;;14.60;99.90;;;;;;4804933;29;20055;-67
2022/06/11 03:01:53;;;;;;;13.75;8.98;;;14.60;99.90;;;;;;4805172;29;20051;-68
2022/06/11 03:04:20;;;;;;;13.25;8.98;;;14.50;99.90;;;;;;4805946;29;20058;-68
2022/06/11 03:06:46;;;;;;;16.35;9.25;;;14.50;99.90;;;;;;4805794;29;20058;-65
2022/06/11 03:09:15;;;;;;;12.27;8.23;;;14.50;99.90;;;;;;4806728;29;20058;-67
2022/06/11 03:11:41;;;;;;;14.65;8.65;;;14.50;99.90;;;;;;4790002;29;20533;-68
2022/06/11 03:14:06;;;;;;;14.00;9.20;;;14.40;99.90;;;;;;4804738;29;20054;-68
2022/06/11 03:16:32;;;;;;;11.60;8.93;;;14.50;99.90;;;;;;4805915;29;20131;-67
2022/06/11 03:18:58;;;;;;;13.32;8.60;;;14.30;99.90;;;;;;4806200;29;20469;-67
2022/06/11 03:21:24;;;;;;;13.70;9.38;;;14.40;99.90;;;;;;4805822;29;20050;-68
2022/06/11 03:23:50;;;;;;;14.38;9.40;;;14.40;99.90;;;;;;4806894;29;20050;-66
2022/06/11 03:26:15;;;;;;;13.27;9.88;;;14.30;99.90;;;;;;4789036;29;20393;-68
2022/06/11 03:28:41;;;;;;;13.43;10.20;;;14.30;99.90;;;;;;4806047;29;20212;-66
2022/06/11 03:31:07;;;;;;;17.38;11.23;;;14.60;99.90;;;;;;4789616;29;20607;-67
2022/06/11 03:33:36;;;;;;;17.05;11.90;;;14.30;99.90;;;;;;4806364;29;20047;-67
2022/06/11 03:36:05;;;;;;;16.27;11.38;;;14.40;99.90;;;;;;4790295;29;20410;-67
2022/06/11 03:38:31;;;;;;;15.20;10.65;;;14.40;99.90;;;;;;4805049;29;20099;-68
2022/06/11 03:40:57;;;;;;;11.65;10.00;;;14.30;99.90;;;;;;4806504;29;20050;-66
2022/06/11 03:43:23;;;;;;;13.80;9.25;;;14.30;99.90;;;;;;4788244;29;20046;-67
2022/06/11 03:45:50;;;;;;;10.88;8.73;;;14.40;99.90;;;;;;4789516;29;20111;-67
2022/06/11 03:48:17;;;;;;;13.20;9.10;;;14.40;99.90;;;;;;4805551;29;20054;-67
2022/06/11 03:50:42;;;;;;;14.85;9.35;;;14.60;99.90;;;;;;4804105;29;20054;-68
2022/06/11 03:53:10;;;;;;;13.27;9.45;;;14.50;99.90;;;;;;4806053;29;20051;-66
2022/06/11 03:55:36;;;;;;;9.30;8.30;;;14.50;99.90;;;;;;4789131;29;20055;-68
2022/06/11 03:58:02;;;;;;;14.32;8.27;;;14.50;99.90;;;;;;4789613;29;20476;-68
2022/06/11 04:03:15;;;;;;;15.57;7.95;;;14.60;99.90;;;;;;4804423;29;20452;-67
2022/06/11 04:05:42;;;;;;;12.80;7.40;;;14.60;99.90;;;;;;4789095;29;20472;-67
2022/06/11 04:08:10;;;;;;;12.98;7.35;;;14.50;99.90;;;;;;4805871;29;20050;-68
2022/06/11 04:10:37;;;;;;;17.40;7.60;;;14.60;99.90;;;;;;4805833;29;20057;-69
2022/06/11 04:13:28;;;;;;;12.27;7.18;;;14.40;99.90;;;;;;4774603;29;20070;-67
2022/06/11 04:16:33;;;;;;;11.88;6.75;;;14.80;99.90;;;;;;4798481;29;20118;-67
2022/06/11 04:19:01;;;;;;;9.65;5.85;;;14.90;99.90;;;;;;4732392;30;20202;-67
2022/06/11 04:21:28;;;;;;;13.93;6.25;;;14.40;99.90;;;;;;4715834;30;20070;-66
2022/06/11 04:23:56;;;;;;;8.55;5.97;;;14.70;99.90;;;;;;4767483;29;20140;-68
2022/06/11 04:26:36;;;;;;;12.93;5.30;;;14.60;99.90;;;;;;4788959;29;20077;-67
2022/06/11 04:29:04;;;;;;;13.77;5.43;;;14.70;99.90;;;;;;4774444;29;20122;-68
2022/06/11 04:31:31;;;;;;;13.30;5.45;;;14.70;99.90;;;;;;4804999;29;20374;-67
2022/06/11 04:33:57;;;;;;;7.78;4.10;;;14.50;99.90;;;;;;4805350;29;20113;-68
2022/06/11 04:36:26;;;;;;;13.20;4.53;;;15.50;99.90;;;;;;4773725;29;20046;-68
2022/06/11 04:38:52;;;;;;;11.73;4.13;;;14.80;99.90;;;;;;4788378;29;20047;-68
2022/06/11 04:41:18;;;;;;;8.80;4.07;;;14.80;99.90;;;;;;4789531;29;20059;-67
2022/06/11 04:43:44;;;;;;;10.55;3.65;;;14.80;99.90;;;;;;4787063;29;20066;-68
2022/06/11 04:46:53;;;;;;;11.75;4.38;;;14.80;99.90;;;;;;4803241;29;20046;-67
2022/06/11 04:49:20;;;;;;;13.05;4.43;;;15.40;99.90;;;;;;4754157;29;20507;-69
2022/06/11 04:51:46;;;;;;;10.60;4.10;;;15.00;99.90;;;;;;4774690;29;20050;-67
2022/06/11 04:54:11;;;;;;;15.60;3.72;;;15.00;99.90;;;;;;4804401;29;20078;-68
2022/06/11 04:56:38;;;;;;;12.30;3.75;;;14.90;99.90;;;;;;4789604;29;20436;-67
2022/06/11 04:59:06;;;;;;;11.00;3.47;;;15.00;99.90;;;;;;4788658;29;20125;-69
2022/06/11 05:01:32;;;;;;;9.10;3.30;;;15.30;99.90;;;;;;4787453;29;20043;-68
2022/06/11 05:03:58;;;;;;;6.75;3.38;;;15.20;99.90;;;;;;4788924;29;20485;-68
2022/06/11 05:06:28;;;;;;;12.45;3.47;;;15.20;99.90;;;;;;4788844;29;20118;-67
2022/06/11 05:08:54;;;;;;;8.80;3.35;;;15.30;99.90;;;;;;4805325;29;20059;-67
2022/06/11 05:11:19;;;;;;;10.73;4.00;;;15.40;99.90;;;;;;4804797;29;20066;-69
2022/06/11 05:13:45;;;;;;;11.25;3.60;;;15.70;99.90;;;;;;4773380;29;20122;-68
2022/06/11 05:16:20;;;;;;;8.00;3.42;;;15.40;99.90;;;;;;4804254;29;20400;-67
2022/06/11 05:18:45;;;;;;;12.90;3.70;;;16.40;99.90;;;;;;4807463;29;20381;-68
2022/06/11 05:21:12;;;;;;;12.02;3.63;;;15.60;99.90;;;;;;4808259;29;20072;-66
2022/06/11 05:23:37;;;;;;;11.05;4.35;;;15.70;99.90;;;;;;4791900;29;20370;-69
2022/06/11 05:26:05;;;;;;;10.85;3.30;;;15.60;99.90;;;;;;4807332;29;20053;-68
2022/06/11 05:28:32;;;;;;;10.27;3.47;;;15.80;99.90;;;;;;4806150;29;20070;-68
2022/06/11 05:31:22;;;;;;;14.43;4.10;;;16.50;99.90;;;;;;4806355;29;20086;-67
2022/06/11 05:33:48;;;;;;;11.35;3.75;;;17.50;99.90;;;;;;4805788;29;20055;-67
2022/06/11 05:36:15;;;;;;;14.23;3.25;;;18.40;99.90;;;;;;4789557;29;20049;-68
2022/06/11 05:41:45;;;;;;;9.80;3.50;;;19.80;99.90;;;;;;4790485;29;20047;-68
2022/06/11 05:44:12;;;;;;;7.57;3.40;;;20.70;99.90;;;;;;4799418;29;20045;-66
2022/06/11 05:46:38;;;;;;;12.02;3.53;;;21.10;99.90;;;;;;4796160;29;20046;-67
2022/06/11 05:49:14;;;;;;;12.30;3.90;;;21.10;99.90;;;;;;4801281;29;20051;-66
2022/06/11 05:51:43;;;;;;;9.75;3.72;;;21.40;99.90;;;;;;4789230;29;20074;-68
2022/06/11 05:54:16;;;;;;;8.75;3.40;;;21.30;99.90;;;;;;4779716;29;20503;-68
2022/06/11 05:56:42;;;;;;;12.73;3.50;;;21.60;99.90;;;;;;4785019;29;20137;-67
2022/06/11 05:59:15;;;;;;;10.88;3.65;;;21.80;99.90;;;;;;4801308;29;20130;-67
2022/06/11 06:01:43;;;;;;;10.82;3.80;;;22.20;99.90;;;;;;4783477;30;20058;-67
2022/06/11 06:04:09;;;;;;;11.88;3.88;;;22.40;99.90;;;;;;4782140;29;20126;-66
2022/06/11 06:06:35;;;;;;;11.25;3.67;;;22.20;99.90;;;;;;4786092;29;20131;-67
2022/06/11 06:09:02;;;;;;;10.10;3.65;;;22.30;99.90;;;;;;4785030;29;20118;-67
2022/06/11 06:11:28;;;;;;;12.43;3.60;;;22.40;99.90;;;;;;4798851;29;20139;-67
2022/06/11 06:13:56;;;;;;;11.75;3.75;;;22.60;99.90;;;;;;4784325;29;20061;-69
2022/06/11 06:16:24;;;;;;;14.82;3.90;;;22.60;99.90;;;;;;4807051;29;20134;-66
2022/06/11 06:18:51;;;;;;;13.15;3.83;;;22.30;99.90;;;;;;4805382;29;20058;-70
2022/06/11 06:21:20;;;;;;;14.40;3.78;;;22.40;99.90;;;;;;4801308;29;20061;-67
2022/06/11 06:23:46;;;;;;;12.30;3.60;;;22.40;99.90;;;;;;4788128;29;20066;-69
2022/06/11 06:26:12;;;;;;;13.25;3.95;;;22.50;99.90;;;;;;4787683;29;20381;-67
2022/06/11 06:28:38;;;;;;;11.07;2.95;;;22.50;99.90;;;;;;4791812;29;20424;-67
2022/06/11 06:31:05;;;;;;;14.75;3.47;;;22.70;99.90;;;;;;4788441;29;20090;-68
2022/06/11 06:33:32;;;;;;;12.45;3.22;;;22.80;99.90;;;;;;4789805;29;20062;-68
2022/06/11 06:35:59;;;;;;;13.35;3.75;;;22.70;99.90;;;;;;4802056;29;20085;-67
2022/06/11 06:38:24;;;;;;;11.52;3.58;;;22.80;99.90;;;;;;4790533;29;20049;-68
2022/06/11 06:40:50;;;;;;;11.55;3.75;;;22.60;99.90;;;;;;4804851;29;20459;-67
2022/06/11 06:43:16;;;;;;;15.98;4.63;;;21.60;99.90;;;;;;4790681;29;20412;-67
2022/06/11 06:45:41;;;;;;;11.85;3.42;;;21.00;99.90;;;;;;4804082;29;20401;-67
2022/06/11 06:48:07;;;;;;;16.73;3.70;;;20.40;99.90;;;;;;4783617;29;20070;-66
2022/06/11 06:50:33;;;;;;;13.70;3.53;;;20.10;99.90;;;;;;4799691;29;20058;-68
2022/06/11 06:52:58;;;;;;;14.23;3.78;;;19.90;99.90;;;;;;4804967;29;20050;-68
2022/06/11 06:55:24;;;;;;;14.48;4.18;;;19.60;99.90;;;;;;4787510;29;20131;-68
2022/06/11 06:57:50;;;;;;;12.85;3.33;;;19.40;99.90;;;;;;4774994;29;20061;-69
2022/06/11 07:00:17;;;;;;;14.50;3.85;;;19.40;99.90;;;;;;4806440;29;20496;-67
2022/06/11 07:02:44;;;;;;;12.88;4.20;;;19.30;99.90;;;;;;4788922;29;20499;-68
2022/06/11 07:05:12;;;;;;;13.90;3.72;;;19.30;99.90;;;;;;4805455;29;20074;-68
2022/06/11 07:07:38;;;;;;;16.45;3.70;;;19.40;99.90;;;;;;4804942;29;20054;-69
2022/06/11 07:10:05;;;;;;;15.48;3.90;;;19.40;99.90;;;;;;4787872;29;20066;-67
2022/06/11 07:12:30;;;;;;;11.02;3.20;;;19.60;99.90;;;;;;4806568;29;20112;-68
2022/06/11 07:14:56;;;;;;;16.50;3.90;;;19.60;99.90;;;;;;4787570;29;20551;-67
2022/06/11 07:17:22;;;;;;;11.93;3.58;;;19.60;99.90;;;;;;4806135;29;20054;-67
2022/06/11 07:20:02;;;;;;;12.80;4.00;;;19.70;99.90;;;;;;4805346;29;20202;-68
2022/06/11 07:22:36;;;;;;;15.25;3.60;;;19.80;99.90;;;;;;4789863;29;20055;-67
2022/06/11 07:25:06;;;;;;;13.77;3.60;;;19.90;99.90;;;;;;4806265;29;20051;-68
2022/06/11 07:27:36;;;;;;;13.48;3.70;;;20.00;99.90;;;;;;4806012;29;20536;-68
2022/06/11 07:30:13;;;;;;;11.25;3.35;;;20.00;99.90;;;;;;4790150;29;20059;-68
2022/06/11 07:32:40;;;;;;;13.25;3.47;;;19.80;99.90;;;;;;4788879;29;20055;-67
2022/06/11 07:35:08;;;;;;;17.77;3.90;;;19.60;99.90;;;;;;4806342;29;20084;-68
2022/06/11 07:37:35;;;;;;;14.93;4.05;;;19.70;99.90;;;;;;4803848;29;20140;-68
2022/06/11 07:40:02;;;;;;;14.60;4.25;;;19.80;99.90;;;;;;4787652;29;20046;-68
2022/06/11 07:42:28;;;;;;;14.40;4.28;;;20.00;99.90;;;;;;4806156;29;20406;-66
2022/06/11 07:44:53;;;;;;;15.95;4.70;;;20.10;99.90;;;;;;4789412;29;20054;-68
2022/06/11 07:47:53;;;;;;;16.05;4.30;;;20.00;99.90;;;;;;4804689;29;20060;-68
2022/06/11 07:50:05;;;;;;;17.63;4.47;;;20.00;99.90;;;;;;4788540;29;20072;-67
2022/06/11 07:52:31;;;;;;;12.90;3.58;;;20.10;99.90;;;;;;4787368;29;20061;-67
2022/06/11 07:54:56;;;;;;;14.05;3.55;;;20.10;99.90;;;;;;4789661;29;20392;-67
2022/06/11 07:57:22;;;;;;;16.17;3.63;;;20.10;99.90;;;;;;4789714;29;20382;-66
2022/06/11 07:59:47;;;;;;;17.50;4.30;;;20.10;99.90;;;;;;4802812;29;20055;-66
2022/06/11 08:02:13;;;;;;;16.08;3.88;;;20.40;99.90;;;;;;4789344;29;20082;-66
2022/06/11 08:04:38;;;;;;;15.82;3.92;;;20.60;99.90;;;;;;4804853;29;20066;-68
2022/06/11 08:07:04;;;;;;;20.00;4.75;;;20.80;99.90;;;;;;4804684;29;20130;-66
2022/06/11 08:09:30;;;;;;;15.38;4.00;;;21.00;99.90;;;;;;4786564;29;20141;-66
2022/06/11 08:11:55;;;;;;;14.18;3.97;;;21.00;99.90;;;;;;4788485;29;20093;-67
2022/06/11 08:14:22;;;;;;;18.23;4.07;;;21.10;99.90;;;;;;4801326;29;20083;-66
2022/06/11 08:16:48;;;;;;;15.90;4.57;;;21.10;99.90;;;;;;4805263;29;20137;-66
2022/06/11 08:19:13;;;;;;;12.93;3.65;;;21.10;99.90;;;;;;4789410;29;20514;-66
2022/06/11 08:21:40;;;;;;;14.82;3.92;;;21.10;99.90;;;;;;4802229;29;20089;-67
2022/06/11 08:24:06;;;;;;;17.98;3.88;;;21.20;99.90;;;;;;4804576;29;20062;-65
2022/06/11 08:26:32;;;;;;;16.48;4.40;;;21.30;99.90;;;;;;4789187;29;20058;-66
2022/06/11 08:28:57;;;;;;;16.92;3.80;;;21.40;99.90;;;;;;4789227;29;20518;-66
2022/06/11 08:31:23;;;;;;;17.92;3.72;;;21.50;99.90;;;;;;4804656;29;20042;-65
2022/06/11 08:33:48;;;;;;;17.75;4.05;;;21.50;99.90;;;;;;4805741;29;20049;-67
2022/06/11 08:36:14;;;;;;;13.60;3.50;;;21.40;99.90;;;;;;4788475;29;20452;-66
2022/06/11 08:38:39;;;;;;;15.20;4.00;;;21.30;99.90;;;;;;4789150;29;20046;-65
2022/06/11 08:41:18;;;;;;;16.23;3.42;;;21.40;99.90;;;;;;4773744;29;20079;-67
2022/06/11 08:43:59;;;;;;;15.07;4.22;;;21.40;99.90;;;;;;4803170;29;20047;-66
2022/06/11 08:46:32;;;;;;;16.10;4.03;;;21.50;99.90;;;;;;4771069;30;20074;-68
2022/06/11 08:49:01;;;;;;;11.38;3.25;;;21.70;99.90;;;;;;4799812;29;20055;-68
2022/06/11 08:51:35;;;;;;;16.23;3.90;;;21.90;99.90;;;;;;4807565;29;20127;-67
2022/06/11 08:54:16;;;;;;;13.57;3.72;;;21.90;99.90;;;;;;4789456;29;20050;-68
2022/06/11 08:56:49;;;;;;;18.25;3.55;;;21.80;99.90;;;;;;4789837;29;20093;-67
2022/06/11 08:59:32;;;;;;;17.00;4.15;;;21.80;99.90;;;;;;4792288;29;20055;-67
2022/06/11 09:02:22;;;;;;;17.85;4.00;;;21.90;99.90;;;;;;4807594;29;20508;-67
2022/06/11 09:05:02;;;;;;;13.77;3.92;;;22.00;99.90;;;;;;4808004;29;20450;-65
2022/06/11 09:07:42;;;;;;;18.23;4.65;;;22.00;99.90;;;;;;4808740;29;20063;-66
2022/06/11 09:10:28;;;;;;;15.00;3.75;;;22.00;99.90;;;;;;4791121;29;20495;-66
2022/06/11 09:13:41;;;;;;;17.83;4.20;;;22.20;99.90;;;;;;4790272;29;20057;-64
2022/06/11 09:16:21;;;;;;;14.00;3.55;;;22.10;99.90;;;;;;4802784;29;20058;-66
2022/06/11 09:18:58;;;;;;;11.73;3.20;;;22.20;99.90;;;;;;4790753;29;20114;-68
2022/06/11 09:21:49;;;;;;;13.45;3.65;;;22.10;99.90;;;;;;4790575;29;20508;-65
2022/06/11 09:24:15;;;;;;;15.85;3.33;;;22.00;99.90;;;;;;4786711;29;20054;-67
2022/06/11 09:27:14;;;;;;;12.85;3.20;;;22.10;99.90;;;;;;4791501;29;20473;-65
2022/06/11 09:29:58;;;;;;;13.25;3.22;;;22.20;99.90;;;;;;4785983;29;20073;-67
2022/06/11 09:32:29;;;;;;;12.65;3.40;;;22.10;99.90;;;;;;4807403;29;20061;-66
2022/06/11 09:35:04;;;;;;;13.60;3.40;;;22.20;99.90;;;;;;4806210;29;20055;-67
2022/06/11 09:37:53;;;;;;;10.90;3.30;;;22.20;99.90;;;;;;4805342;29;20171;-67
2022/06/11 09:40:34;;;;;;;11.90;3.30;;;22.30;99.90;;;;;;4807208;29;20913;-66
2022/06/11 09:43:38;;;;;;;15.38;3.97;;;22.40;99.90;;;;;;4808247;29;20051;-65
2022/06/11 09:46:21;;;;;;;12.43;2.78;;;22.50;99.90;;;;;;4791202;29;20058;-67
2022/06/11 09:49:14;;;;;;;11.23;2.80;;;22.60;99.90;;;;;;4791057;29;20070;-66
2022/06/11 09:51:56;;;;;;;15.77;3.20;;;22.60;99.90;;;;;;4790027;29;20473;-66
2022/06/11 09:54:43;;;;;;;11.40;2.97;;;22.50;99.90;;;;;;4807350;29;20055;-66
2022/06/11 09:57:37;;;;;;;11.60;3.45;;;22.80;99.90;;;;;;4807982;29;20111;-66
2022/06/11 10:00:38;;;;;;;13.18;3.13;;;22.70;99.90;;;;;;4805138;29;20051;-66
2022/06/11 10:03:29;;;;;;;14.07;3.25;;;22.70;99.90;;;;;;4805262;29;20057;-65
2022/06/11 10:06:00;;;;;;;23.58;3.58;;;22.80;99.90;;;;;;4789148;29;20046;-66
2022/06/11 10:08:35;;;;;;;13.35;2.67;;;23.00;99.90;;;;;;4807832;29;20059;-66
2022/06/11 10:11:04;;;;;;;13.50;3.10;;;23.20;99.90;;;;;;4805779;29;20115;-65
2022/06/11 10:13:35;;;;;;;12.18;2.60;;;23.30;97.00;;;;;;4789944;29;20043;-65
2022/06/11 10:16:25;;;;;;;13.85;2.75;;;23.40;96.50;;;;;;4802009;29;20050;-66
2022/06/11 10:18:51;;;;;;;11.25;2.80;;;23.40;82.80;;;;;;4789700;29;20996;-65
2022/06/11 10:21:21;;;;;;;7.90;2.45;;;23.40;90.60;;;;;;4806165;29;20489;-66
2022/06/11 10:24:00;;;;;;;6.97;2.00;;;23.40;90.10;;;;;;4788715;29;20047;-66
2022/06/11 10:26:47;;;;;;;9.60;3.13;;;23.50;73.40;;;;;;4773386;29;20085;-66
2022/06/11 10:29:24;;;;;;;11.65;2.47;;;23.60;73.80;;;;;;4788095;30;20051;-66
2022/06/11 10:32:05;;;;;;;10.70;2.40;;;23.40;75.40;;;;;;4791122;29;20126;-64
2022/06/11 10:34:31;;;;;;;11.03;2.50;;;23.30;78.50;;;;;;4803231;29;20046;-65
2022/06/11 10:37:08;;;;;;;12.20;2.58;;;23.30;78.80;;;;;;4804024;29;20121;-64
2022/06/11 10:39:40;;;;;;;7.97;2.20;;;23.40;73.00;;;;;;4803928;29;20473;-65
2022/06/11 10:42:37;;;;;;;7.07;2.05;;;23.50;73.70;;;;;;4805429;29;20090;-65
2022/06/11 10:45:03;;;;;;;9.40;2.22;;;23.60;65.80;;;;;;4778935;29;20051;-66
2022/06/11 10:47:43;;;;;;;8.93;2.47;;;23.70;71.10;;;;;;4803642;29;20095;-66
2022/06/11 10:50:11;;;;;;;9.43;2.80;;;23.60;65.30;;;;;;4803099;29;20058;-65
2022/06/11 10:52:44;;;;;;;11.15;2.50;;;23.60;65.80;;;;;;4789599;29;20062;-65
2022/06/11 10:55:16;;;;;;;12.85;2.92;;;23.40;66.30;;;;;;4785636;29;20047;-67
2022/06/11 10:57:46;;;;;;;9.27;2.50;;;23.40;66.30;;;;;;4786541;29;20047;-67
2022/06/11 11:00:26;;;;;;;7.38;2.47;;;23.40;66.30;;;;;;4799458;29;20059;-67
2022/06/11 11:03:03;;;;;;;7.35;2.03;;;23.40;64.90;;;;;;4796132;29;20079;-67
2022/06/11 11:05:48;;;;;;;9.40;2.17;;;23.40;65.00;;;;;;4804269;29;20046;-66
2022/06/11 11:08:14;;;;;;;8.85;2.35;;;23.40;63.50;;;;;;4773242;29;20054;-67
2022/06/11 11:10:42;;;;;;;7.68;1.95;;;23.30;64.60;;;;;;4785922;29;20070;-67
2022/06/11 11:13:25;;;;;;;10.43;2.45;;;23.30;63.90;;;;;;4797951;29;20103;-67
2022/06/11 11:16:12;;;;;;;6.82;2.45;;;23.10;63.00;;;;;;4757331;30;20080;-66
2022/06/11 11:18:46;;;;;;;7.32;2.10;;;23.10;62.00;;;;;;4792025;29;20098;-68
2022/06/11 11:21:26;;;;;;;6.60;2.10;;;22.90;62.80;;;;;;4788385;29;20054;-66
2022/06/11 11:24:01;;;;;;;8.60;2.63;;;22.80;63.10;;;;;;4800204;29;20097;-68
2022/06/11 11:26:40;;;;;;;9.95;2.10;;;22.90;65.80;;;;;;4796558;29;20066;-66
2022/06/11 11:29:21;;;;;;;9.38;2.03;;;23.00;66.00;;;;;;4801721;29;20123;-66
2022/06/11 11:31:55;;;;;;;8.30;2.35;;;23.20;67.40;;;;;;4788137;29;20082;-66
2022/06/11 11:34:20;;;;;;;9.88;2.38;;;23.30;65.90;;;;;;4786683;29;20204;-66
2022/06/11 11:36:46;;;;;;;9.45;2.42;;;23.00;64.80;;;;;;4787164;29;20303;-67
2022/06/11 11:39:20;;;;;;;9.88;2.17;;;23.00;66.10;;;;;;4788495;29;20058;-65
2022/06/11 11:42:23;;;;;;;10.15;2.45;;;23.10;67.50;;;;;;4781082;29;20058;-67
2022/06/11 11:44:51;;;;;;;10.73;2.40;;;23.20;65.30;;;;;;4796585;29;20050;-67
2022/06/11 11:47:36;;;;;;;8.50;2.10;;;23.20;65.70;;;;;;4805006;29;20416;-66
2022/06/11 11:50:06;;;;;;;10.32;2.50;;;23.20;61.10;;;;;;4806110;29;20463;-67
2022/06/11 11:52:42;;;;;;;8.63;2.13;;;23.30;64.00;;;;;;4804531;29;20509;-67
2022/06/11 11:55:18;;;;;;;9.27;2.00;;;23.10;62.20;;;;;;4789660;29;20085;-66
2022/06/11 11:57:52;;;;;;;10.27;2.67;;;23.20;64.10;;;;;;4805795;29;20384;-65
2022/06/11 12:00:49;;;;;;;10.57;2.65;;;23.20;63.70;;;;;;4789562;29;20084;-67
2022/06/11 12:03:29;;;;;;;9.52;2.90;;;23.30;63.70;;;;;;4804885;29;20082;-68
2022/06/11 12:05:57;;;;;;;8.52;2.22;;;23.20;62.20;;;;;;4805549;29;20050;-67
2022/06/11 12:08:41;;;;;;;6.38;2.25;;;23.20;62.30;;;;;;4804958;29;20384;-68
2022/06/11 12:11:19;;;;;;;7.95;2.30;;;23.20;60.90;;;;;;4805549;29;20066;-66
2022/06/11 12:13:48;;;;;;;10.43;2.70;;;23.20;62.30;;;;;;4774490;29;20043;-67
2022/06/11 12:16:36;;;;;;;11.40;2.72;;;23.20;61.70;;;;;;4789133;29;20121;-66
2022/06/11 12:19:24;;;;;;;12.60;2.10;;;23.20;61.70;;;;;;4789344;29;20047;-66
2022/06/11 12:22:09;;;;;;;9.75;2.58;;;23.30;61.70;;;;;;4788617;29;20047;-67
2022/06/11 12:24:41;;;;;;;8.88;1.92;;;23.40;61.70;;;;;;4789431;29;20039;-66
2022/06/11 12:27:15;;;;;;;;;;;23.40;61.60;;;;;;4809731;29;20047;-65
2022/06/11 12:30:11;;;;;;;6.47;1.67;;;23.30;59.10;;;;;;4791734;29;19937;-65
2022/06/11 12:32:36;;;;;;;9.98;2.47;;;23.30;58.90;;;;;;4808885;29;20065;-66
2022/06/11 12:35:14;;;;;;;7.50;2.03;;;23.50;61.00;;;;;;4809182;29;20117;-66
2022/06/11 12:38:00;;;;;;;8.23;2.42;;;23.40;59.60;;;;;;4808612;29;20062;-67
2022/06/11 12:40:35;;;;;;;8.88;2.65;;;23.50;60.20;;;;;;4809482;29;20146;-69
2022/06/11 12:43:34;;;;;;;9.45;2.38;;;23.40;58.60;;;;;;4807812;29;20043;-65
2022/06/11 12:46:26;;;;;;;11.35;2.33;;;23.30;58.10;;;;;;4789454;30;20144;-67
2022/06/11 12:49:16;;;;;;;8.77;2.67;;;23.10;58.40;;;;;;4774704;30;20048;-65
2022/06/11 12:52:17;;;;;;;9.13;2.28;;;23.00;59.70;;;;;;4805982;29;20489;-66
2022/06/11 12:55:10;;;;;;;11.25;2.90;;;23.10;60.10;;;;;;4808733;29;20062;-67
2022/06/11 12:58:05;;;;;;;10.95;2.78;;;23.10;61.90;;;;;;4808726;29;20054;-68
2022/06/11 13:00:45;;;;;;;10.82;2.42;;;23.20;61.80;;;;;;4808413;29;20208;-65
2022/06/11 13:03:48;;;;;;;8.70;2.28;;;23.30;62.40;;;;;;4803999;29;20046;-65
2022/06/11 13:06:35;;;;;;;9.18;2.28;;;23.20;60.70;;;;;;4805246;29;20051;-67
2022/06/11 13:09:19;;;;;;;7.97;2.55;;;23.20;62.60;;;;;;4807522;29;20461;-66
2022/06/11 13:12:14;;;;;;;7.35;2.35;;;23.30;62.60;;;;;;4775090;29;20051;-64
2022/06/11 13:14:50;;;;;;;10.65;2.60;;;23.30;62.80;;;;;;4806390;29;20059;-67
2022/06/11 13:17:23;;;;;;;8.95;2.47;;;23.30;63.40;;;;;;4807655;29;20047;-64